Time;durP1;ratioP1;P1;durP2;ratioP2;P2;SDS_P1;SDS_P2;PMS_P1;PMS_P2;Temp;Humidity;BMP_temperature;BMP_pressure;BME280_temperature;BME280_humidity;BME280_pressure;Samples;Min_cycle;Max_cycle;Signal;HPM_P1;HPM_P2
2021/05/03 00:02:36;;;;;;;4.30;3.70;;;;;;;3.26;82.97;99040.14;512845;1099;116178;-63
2021/05/03 00:12:42;;;;;;;3.67;3.37;;;;;;;3.27;83.13;99049.61;512567;1104;175732;-63
2021/05/03 00:22:47;;;;;;;3.83;3.20;;;;;;;3.17;82.76;99047.41;513848;1100;117791;-61
2021/05/03 00:32:51;;;;;;;4.10;3.03;;;;;;;3.14;83.06;99057.06;513797;1100;115531;-64
2021/05/03 00:42:56;;;;;;;3.57;3.27;;;;;;;3.16;82.96;99069.07;511130;1104;116442;-63
2021/05/03 00:53:00;;;;;;;6.37;4.23;;;;;;;3.14;83.09;99086.45;513486;1104;115863;-64
2021/05/03 01:03:06;;;;;;;4.00;3.60;;;;;;;3.17;82.82;99094.10;513099;1104;114895;-63
2021/05/03 01:13:11;;;;;;;5.90;3.70;;;;;;;3.14;82.60;99081.27;513039;1104;115125;-62
2021/05/03 01:23:16;;;;;;;4.80;4.30;;;;;;;3.04;82.48;99092.93;513720;1104;118530;-62
2021/05/03 01:33:21;;;;;;;4.10;3.70;;;;;;;2.96;82.92;99116.59;513154;1104;116277;-63
2021/05/03 01:43:28;;;;;;;4.70;4.10;;;;;;;3.04;83.20;99132.66;512331;1100;115430;-63
2021/05/03 01:53:33;;;;;;;4.80;4.33;;;;;;;3.07;82.93;99135.16;512582;1104;115680;-63
2021/05/03 02:03:38;;;;;;;5.97;4.17;;;;;;;3.05;82.42;99136.95;512376;1100;116362;-62
2021/05/03 02:13:42;;;;;;;4.50;4.00;;;;;;;3.08;82.81;99126.47;513581;1100;114964;-61
2021/05/03 02:23:47;;;;;;;5.30;4.67;;;;;;;3.02;82.21;99139.67;514675;1104;115503;-63
2021/05/03 02:33:52;;;;;;;5.85;4.75;;;;;;;3.08;82.62;99154.14;512525;1104;116475;-62
2021/05/03 02:43:56;;;;;;;6.13;5.50;;;;;;;3.02;82.26;99162.19;513678;1099;115916;-62
2021/05/03 02:54:01;;;;;;;6.20;5.33;;;;;;;2.99;82.65;99177.85;512676;1100;115068;-62
2021/05/03 03:04:06;;;;;;;6.33;4.57;;;;;;;2.99;81.96;99189.09;511929;1104;117022;-63
2021/05/03 03:14:11;;;;;;;5.83;4.47;;;;;;;3.03;81.92;99189.81;512772;1099;115080;-61
2021/05/03 03:24:16;;;;;;;4.50;3.97;;;;;;;3.05;82.37;99216.53;512635;1104;115655;-63
2021/05/03 03:34:21;;;;;;;5.85;4.40;;;;;;;3.07;82.24;99219.91;512632;1104;116139;-64
2021/05/03 03:44:25;;;;;;;6.00;5.37;;;;;;;3.07;82.28;99227.69;513454;1099;115672;-63
2021/05/03 03:54:30;;;;;;;5.50;4.93;;;;;;;3.09;82.05;99238.84;512731;1104;117811;-62
2021/05/03 04:04:36;;;;;;;6.70;4.33;;;;;;;3.02;82.14;99243.43;512902;1104;115489;-63
2021/05/03 04:25:15;;;;;;;6.97;5.20;;;;;;;3.03;82.24;99250.30;511909;1098;115966;-62
2021/05/03 04:35:19;;;;;;;7.98;6.08;;;;;;;3.17;82.67;99272.27;512838;1104;114950;-61
2021/05/03 04:45:24;;;;;;;7.20;5.70;;;;;;;3.41;82.15;99280.03;512889;1104;115661;-62
2021/05/03 04:55:29;;;;;;;9.03;8.13;;;;;;;3.88;82.37;99284.20;512543;1104;115537;-63
2021/05/03 05:05:34;;;;;;;14.20;11.50;;;;;;;4.72;82.17;99288.42;512859;1100;116093;-62
2021/05/03 05:15:39;;;;;;;10.10;8.50;;;;;;;5.95;80.17;99299.18;512039;1104;116097;-62
2021/05/03 05:25:45;;;;;;;12.37;8.87;;;;;;;6.22;78.64;99308.34;513081;1104;118267;-62
2021/05/03 05:35:49;;;;;;;7.75;7.05;;;;;;;5.92;78.91;99314.98;512684;1104;115524;-63
2021/05/03 05:45:54;;;;;;;8.65;7.08;;;;;;;5.97;78.19;99325.18;512509;1104;115544;-62
2021/05/03 05:55:58;;;;;;;6.97;5.70;;;;;;;5.84;77.56;99325.78;512590;1104;115872;-63
2021/05/03 06:06:03;;;;;;;8.63;5.37;;;;;;;6.26;76.99;99339.40;512705;1100;115308;-62
2021/05/03 06:16:08;;;;;;;5.97;4.73;;;;;;;10.07;77.35;99340.28;513062;1100;115187;-63
2021/05/03 06:26:12;;;;;;;4.97;4.47;;;;;;;12.66;68.83;99336.95;513801;1099;116103;-63
2021/05/03 06:36:17;;;;;;;5.27;2.73;;;;;;;14.21;65.98;99333.57;513239;1104;115129;-63
2021/05/03 06:46:22;;;;;;;3.47;2.63;;;;;;;15.26;61.94;99329.93;512559;1104;115399;-63
2021/05/03 06:56:27;;;;;;;2.93;1.87;;;;;;;13.55;56.12;99349.41;512623;1104;115941;-63
2021/05/03 07:06:32;;;;;;;2.07;1.87;;;;;;;11.38;58.97;99363.84;512429;1104;116138;-61
2021/05/03 07:16:36;;;;;;;1.77;1.67;;;;;;;9.34;59.43;99379.81;512853;1104;116063;-63
2021/05/03 07:26:43;;;;;;;1.47;1.13;;;;;;;7.73;59.82;99383.96;512555;1099;115528;-63
2021/05/03 07:36:47;;;;;;;1.57;1.47;;;;;;;7.54;60.57;99403.28;511507;1104;115432;-63
2021/05/03 07:46:52;;;;;;;3.20;1.80;;;;;;;7.30;61.69;99411.52;512392;1104;115391;-63
2021/05/03 07:56:58;;;;;;;3.13;2.73;;;;;;;7.59;64.00;99424.77;513357;1104;115859;-64
2021/05/03 08:07:02;;;;;;;2.80;1.70;;;;;;;7.43;62.25;99433.45;512153;1104;115269;-64
2021/05/03 08:17:09;;;;;;;1.80;1.63;;;;;;;7.74;61.29;99451.84;513170;1104;115585;-63
2021/05/03 08:27:14;;;;;;;2.90;1.67;;;;;;;7.55;60.52;99462.45;513806;1104;116049;-64
2021/05/03 08:37:19;;;;;;;3.63;2.97;;;;;;;8.00;63.36;99470.47;512965;1099;115720;-63
2021/05/03 08:47:27;;;;;;;4.37;3.10;;;;;;;7.43;64.24;99479.61;495798;1104;20001842;-66
2021/05/03 08:57:32;;;;;;;3.20;2.67;;;;;;;6.78;66.04;99488.16;513256;1104;115878;-63
2021/05/03 09:07:45;;;;;;;4.10;2.97;;;;;;;6.82;67.08;99502.73;513333;1099;116250;-64
2021/05/03 09:17:50;;;;;;;3.30;1.87;;;;;;;6.91;67.30;99511.87;512814;1104;115620;-65
2021/05/03 09:28:12;;;;;;;3.20;2.70;;;;;;;7.03;68.16;99519.08;512095;1104;115658;-63
2021/05/03 09:38:32;;;;;;;3.55;2.45;;;;;;;7.98;68.44;99527.25;512761;1104;116788;-64
2021/05/03 09:48:37;;;;;;;3.33;2.77;;;;;;;8.25;66.96;99526.64;511565;1104;115580;-64
2021/05/03 09:58:42;;;;;;;3.30;3.00;;;;;;;9.03;66.75;99533.64;512906;1104;115207;-62
2021/05/03 10:08:49;;;;;;;3.40;3.10;;;;;;;9.86;64.81;99528.72;512468;1100;115671;-63
2021/05/03 10:18:54;;;;;;;4.15;2.78;;;;;;;10.56;63.58;99527.84;513063;1104;117328;-62
2021/05/03 10:29:01;;;;;;;3.77;2.53;;;;;;;11.21;61.34;99523.55;513885;1104;116933;-63
2021/05/03 10:39:38;;;;;;;2.67;2.33;;;;;;;10.87;60.52;99520.55;512017;1104;116355;-64
2021/05/03 10:49:45;;;;;;;2.80;2.10;;;;;;;9.62;60.73;99511.80;512583;1100;117289;-63
2021/05/03 10:59:52;;;;;;;2.33;1.80;;;;;;;9.21;61.43;99522.99;513540;1104;116238;-62
2021/05/03 11:09:57;;;;;;;2.77;2.50;;;;;;;8.86;61.89;99531.14;513319;1104;115800;-61
2021/05/03 11:20:08;;;;;;;5.00;2.57;;;;;;;8.46;62.28;99535.09;512930;1104;116175;-63
2021/05/03 11:30:23;;;;;;;3.37;2.30;;;;;;;8.27;62.72;99543.13;513245;1104;114857;-62
2021/05/03 11:40:47;;;;;;;2.80;2.20;;;;;;;9.75;61.40;99535.45;512465;1104;116082;-62
2021/05/03 11:51:05;;;;;;;2.80;1.80;;;;;;;10.51;59.12;99536.02;512820;1100;115438;-65
2021/05/03 12:01:14;;;;;;;2.53;1.67;;;;;;;10.42;58.33;99533.13;513009;1104;116472;-62
2021/05/03 12:11:19;;;;;;;1.60;1.50;;;;;;;10.40;58.27;99538.46;495370;1104;20000904;-63
2021/05/03 12:21:25;;;;;;;3.20;2.07;;;;;;;10.49;57.23;99544.92;513259;1104;116831;-63
2021/05/03 12:31:34;;;;;;;6.70;2.13;;;;;;;9.43;58.89;99551.39;512314;1104;116075;-63
2021/05/03 12:41:38;;;;;;;3.83;1.70;;;;;;;9.39;59.50;99555.97;512258;1099;115395;-62
2021/05/03 12:52:02;;;;;;;8.70;2.60;;;;;;;9.00;59.04;99559.16;511439;1099;116653;-63
2021/05/03 13:02:22;;;;;;;5.05;2.90;;;;;;;9.16;58.96;99546.02;513291;1104;115553;-63
2021/05/03 13:23:21;;;;;;;3.80;2.65;;;;;;;9.77;58.54;99543.24;513615;1104;116062;-62
2021/05/03 13:33:23;;;;;;;2.20;1.70;;;;;;;10.23;57.92;99542.16;513092;1104;115934;-63
2021/05/03 13:43:28;;;;;;;2.00;1.70;;;;;;;9.23;58.39;99545.55;512473;1104;115665;-62
2021/05/03 13:53:32;;;;;;;3.07;2.67;;;;;;;9.26;59.70;99552.40;512721;1104;115696;-62
2021/05/03 14:03:38;;;;;;;3.07;2.10;;;;;;;9.48;58.99;99553.74;512779;1100;116409;-65
2021/05/03 14:13:43;;;;;;;3.85;3.40;;;;;;;9.02;59.21;99558.15;512276;1100;116272;-63
2021/05/03 14:23:48;;;;;;;2.70;2.30;;;;;;;9.10;59.34;99560.31;512674;1104;115783;-62
2021/05/03 14:34:04;;;;;;;3.80;3.37;;;;;;;8.52;59.53;99563.55;511547;1104;117902;-62
2021/05/03 14:44:12;;;;;;;3.43;2.40;;;;;;;8.12;59.72;99561.33;513044;1104;116607;-63
2021/05/03 14:54:32;;;;;;;3.60;2.77;;;;;;;8.24;60.34;99551.98;512732;1104;115992;-62
2021/05/03 15:04:38;;;;;;;2.20;2.00;;;;;;;8.56;60.10;99540.67;512588;1104;115516;-63
2021/05/03 15:14:59;;;;;;;3.37;2.30;;;;;;;8.38;59.53;99543.38;514310;1100;116056;-64
2021/05/03 15:25:07;;;;;;;3.80;2.50;;;;;;;8.07;60.39;99546.81;512907;1100;116056;-64
2021/05/03 15:35:13;;;;;;;3.33;2.78;;;;;;;7.85;60.92;99548.83;513271;1104;114896;-64
2021/05/03 15:45:18;;;;;;;3.10;2.27;;;;;;;7.64;61.28;99534.28;513046;1104;117520;-63
2021/05/03 15:55:24;;;;;;;3.57;2.60;;;;;;;7.67;61.09;99524.52;512294;1104;115250;-64
2021/05/03 16:05:28;;;;;;;4.13;2.53;;;;;;;7.93;60.51;99513.59;513207;1104;116529;-64
2021/05/03 16:15:34;;;;;;;3.50;2.50;;;;;;;7.93;61.05;99531.89;512901;1104;115842;-63
2021/05/03 16:25:38;;;;;;;16.30;5.70;;;;;;;7.65;61.30;99544.66;513750;1104;116173;-63
2021/05/03 16:35:44;;;;;;;3.33;2.13;;;;;;;7.20;61.18;99527.84;503679;1104;10001669;-63
2021/05/03 16:45:49;;;;;;;3.27;1.97;;;;;;;7.09;61.48;99539.67;513840;1104;116024;-66
2021/05/03 16:55:54;;;;;;;3.85;2.60;;;;;;;6.99;62.09;99541.05;513180;1104;115726;-64
2021/05/03 17:05:59;;;;;;;3.60;2.30;;;;;;;6.89;61.84;99532.84;513267;1100;115509;-67
2021/05/03 17:16:05;;;;;;;5.30;2.60;;;;;;;6.53;62.64;99536.34;512535;1104;115613;-66
2021/05/03 17:26:10;;;;;;;3.68;2.55;;;;;;;6.38;63.09;99543.13;516110;1104;116443;-62
2021/05/03 17:36:14;;;;;;;45.13;21.50;;;;;;;6.37;63.66;99546.66;518722;1104;115851;-64
2021/05/03 17:46:20;;;;;;;9.00;4.77;;;;;;;5.96;63.93;99556.28;511322;1104;116625;-67
2021/05/03 17:56:25;;;;;;;30.20;11.80;;;;;;;5.46;64.51;99555.02;512303;1104;115804;-66
2021/05/03 18:06:30;;;;;;;13.67;5.90;;;;;;;5.00;66.00;99561.27;512428;1104;116448;-66
2021/05/03 18:16:36;;;;;;;16.33;8.20;;;;;;;4.60;67.22;99570.70;510243;1104;116289;-66
2021/05/03 18:26:43;;;;;;;30.70;14.47;;;;;;;4.25;68.08;99580.72;513905;1100;116049;-67
2021/05/03 18:36:48;;;;;;;17.07;9.37;;;;;;;4.10;69.11;99579.54;513590;1104;116088;-66
2021/05/03 18:46:53;;;;;;;18.23;8.83;;;;;;;4.05;69.39;99588.36;511732;1104;115578;-65
2021/05/03 18:57:02;;;;;;;16.53;9.23;;;;;;;4.09;70.61;99596.87;511913;1104;116585;-66
2021/05/03 19:07:09;;;;;;;17.20;9.40;;;;;;;4.05;70.76;99590.10;513183;1099;117833;-67
2021/05/03 19:17:16;;;;;;;11.47;6.47;;;;;;;4.10;71.21;99580.41;514076;1100;115999;-66
2021/05/03 19:27:22;;;;;;;13.23;8.10;;;;;;;4.18;71.33;99574.91;511908;1104;115764;-66
2021/05/03 19:37:29;;;;;;;12.77;8.97;;;;;;;4.14;71.61;99581.97;512425;1104;116857;-67
2021/05/03 19:47:35;;;;;;;15.77;10.17;;;;;;;4.00;71.59;99571.25;514863;1104;115296;-66
2021/05/03 19:57:57;;;;;;;14.00;11.47;;;;;;;3.83;72.14;99564.91;511033;1104;115983;-66
2021/05/03 20:08:01;;;;;;;21.90;12.77;;;;;;;3.45;72.37;99567.14;512921;1104;115339;-67
2021/05/03 20:18:07;;;;;;;17.73;9.47;;;;;;;3.09;72.84;99560.55;512451;1104;116002;-66
2021/05/03 20:28:11;;;;;;;15.10;7.93;;;;;;;2.82;72.66;99564.91;512939;1104;116341;-67
2021/05/03 20:38:28;;;;;;;16.03;8.20;;;;;;;2.59;73.49;99559.57;513046;1104;114968;-68
2021/05/03 20:48:34;;;;;;;16.53;9.87;;;;;;;2.48;74.20;99553.88;512785;1104;116784;-67
2021/05/03 20:58:39;;;;;;;12.87;8.20;;;;;;;2.61;73.79;99559.53;512691;1104;115832;-68
2021/05/03 21:08:43;;;;;;;14.70;8.40;;;;;;;2.47;73.90;99552.18;512359;1099;115320;-68
2021/05/03 21:19:00;;;;;;;12.63;8.95;;;;;;;2.20;73.85;99552.14;512064;1104;116184;-68
2021/05/03 21:29:06;;;;;;;16.25;9.53;;;;;;;1.95;74.71;99550.25;513094;1100;115630;-67
2021/05/03 21:39:11;;;;;;;10.47;5.90;;;;;;;1.95;75.31;99552.84;512347;1104;116634;-69
2021/05/03 21:49:16;;;;;;;9.00;5.80;;;;;;;2.41;74.64;99550.63;512409;1104;115225;-66
2021/05/03 21:59:23;;;;;;;7.33;5.10;;;;;;;2.74;74.55;99555.64;512504;1104;116162;-66
2021/05/03 22:09:28;;;;;;;8.35;5.45;;;;;;;2.99;74.41;99549.64;512406;1100;115191;-63
2021/05/03 22:19:37;;;;;;;7.87;5.67;;;;;;;3.23;73.91;99547.12;511754;1104;115490;-63
2021/05/03 22:29:42;;;;;;;10.23;5.27;;;;;;;3.43;73.77;99541.22;513034;1100;115891;-64
2021/05/03 22:40:10;;;;;;;7.73;4.63;;;;;;;3.58;73.46;99538.97;512337;1104;115484;-66
2021/05/03 23:11:12;;;;;;;10.00;6.98;;;;;;;2.42;73.57;99526.41;512033;1104;115278;-65
2021/05/03 23:21:17;;;;;;;10.50;6.63;;;;;;;2.02;74.75;99512.94;512560;1099;116962;-65
2021/05/03 23:31:21;;;;;;;10.67;6.90;;;;;;;1.71;75.30;99519.00;512515;1104;115786;-64
2021/05/03 23:41:26;;;;;;;12.07;6.97;;;;;;;1.64;75.53;99517.50;513479;1104;115713;-65
2021/05/03 23:51:30;;;;;;;12.45;7.45;;;;;;;1.87;75.94;99506.46;514586;1100;116811;-64
